Time;durP1;ratioP1;P1;durP2;ratioP2;P2;SDS_P1;SDS_P2;PMS_P1;PMS_P2;Temp;Humidity;BMP_temperature;BMP_pressure;BME280_temperature;BME280_humidity;BME280_pressure;Samples;Min_cycle;Max_cycle;Signal;HPM_P1;HPM_P2
2023/03/31 00:01:05;;;;;;;3.80;1.77;;;;;;;11.26;98.52;99254.50;5013576;28;20215;-83
2023/03/31 00:03:32;;;;;;;2.93;1.70;;;;;;;11.20;99.37;99244.25;5012942;28;20207;-82
2023/03/31 00:06:01;;;;;;;4.33;1.70;;;;;;;11.15;99.58;99227.94;5013196;28;20210;-82
2023/03/31 00:08:34;;;;;;;2.67;1.70;;;;;;;11.20;99.15;99239.91;5013923;28;20246;-83
2023/03/31 00:11:02;;;;;;;3.17;1.73;;;;;;;11.27;98.61;99246.56;5014659;28;20267;-82
2023/03/31 00:13:30;;;;;;;3.70;2.00;;;;;;;11.18;97.55;99264.38;5013971;28;20229;-84
2023/03/31 00:15:57;;;;;;;4.67;1.50;;;;;;;11.11;96.54;99274.22;5014595;28;20230;-84
2023/03/31 00:18:25;;;;;;;3.10;1.80;;;;;;;11.11;97.47;99269.84;5014164;28;20209;-83
2023/03/31 00:20:52;;;;;;;2.47;1.30;;;;;;;11.08;97.02;99276.94;5013797;28;20219;-83
2023/03/31 00:23:26;;;;;;;2.20;1.70;;;;;;;10.96;98.16;99265.25;5013537;28;20309;-82
2023/03/31 00:25:54;;;;;;;5.70;1.60;;;;;;;10.93;97.27;99266.19;5014478;28;20734;-81
2023/03/31 00:28:20;;;;;;;3.00;1.87;;;;;;;10.93;98.07;99262.75;5018982;28;20235;-82
2023/03/31 00:30:47;;;;;;;4.07;1.70;;;;;;;10.97;98.02;99248.66;5018102;28;20235;-82
2023/03/31 00:33:13;;;;;;;2.93;1.50;;;;;;;10.99;95.71;99269.50;5016900;28;20630;-81
2023/03/31 00:35:40;;;;;;;5.03;1.70;;;;;;;10.98;95.07;99301.72;5017629;28;20232;-81
2023/03/31 00:38:07;;;;;;;4.50;1.77;;;;;;;10.77;95.30;99319.91;5017657;28;20244;-83
2023/03/31 00:40:35;;;;;;;3.70;1.93;;;;;;;10.84;95.64;99307.47;5017479;28;20208;-81
2023/03/31 00:43:02;;;;;;;4.17;1.90;;;;;;;10.83;94.76;99309.25;5017139;28;20606;-82
2023/03/31 00:45:29;;;;;;;3.43;1.67;;;;;;;10.81;96.42;99284.13;5037568;28;20203;-81
2023/03/31 00:48:03;;;;;;;6.43;1.60;;;;;;;10.91;96.70;99278.47;5037301;28;20213;-82
2023/03/31 00:50:33;;;;;;;4.30;1.97;;;;;;;10.88;94.22;99301.22;5038116;28;20213;-82
2023/03/31 00:53:04;;;;;;;3.87;1.90;;;;;;;10.95;94.85;99292.25;5038062;28;20235;-81
2023/03/31 00:55:37;;;;;;;3.63;1.30;;;;;;;10.94;92.21;99319.25;5037100;28;20228;-83
2023/03/31 00:58:06;;;;;;;2.93;1.93;;;;;;;10.99;91.67;99350.44;5037602;28;20213;-83
2023/03/31 01:00:32;;;;;;;2.97;1.40;;;;;;;11.06;92.04;99347.53;5037405;28;20213;-81
2023/03/31 01:03:02;;;;;;;5.07;1.93;;;;;;;11.15;91.36;99348.94;5023300;28;20224;-81
2023/03/31 01:05:32;;;;;;;3.87;1.13;;;;;;;11.15;90.10;99376.81;5018547;28;20196;-82
2023/03/31 01:08:01;;;;;;;1.80;1.00;;;;;;;11.17;88.58;99403.72;5027091;28;20234;-83
2023/03/31 01:10:27;;;;;;;2.97;1.50;;;;;;;11.22;89.14;99407.88;5036386;28;20222;-83
2023/03/31 01:12:57;;;;;;;3.47;1.50;;;;;;;11.21;90.26;99381.81;5036714;28;20241;-83
2023/03/31 01:15:23;;;;;;;3.33;1.40;;;;;;;11.15;90.78;99376.81;5036765;28;20224;-83
2023/03/31 01:17:54;;;;;;;6.73;1.53;;;;;;;11.11;92.04;99345.56;5036900;28;20547;-84
2023/03/31 01:20:29;;;;;;;4.23;1.27;;;;;;;11.13;92.28;99317.63;5037169;28;20236;-82
2023/03/31 01:23:15;;;;;;;2.47;1.40;;;;;;;11.12;90.96;99334.25;5036537;28;20641;-84
2023/03/31 01:26:06;;;;;;;3.13;1.63;;;;;;;11.15;92.09;99329.81;5035257;28;20274;-84
2023/03/31 01:28:40;;;;;;;1.37;1.27;;;;;;;11.17;91.81;99307.94;5036975;28;20211;-84
2023/03/31 01:31:39;;;;;;;3.30;1.37;;;;;;;11.15;93.02;99299.31;5037514;28;20211;-83
2023/03/31 01:34:28;;;;;;;1.83;1.20;;;;;;;11.11;93.94;99267.22;5013406;28;20216;-80
2023/03/31 01:37:34;;;;;;;2.17;1.57;;;;;;;10.92;94.81;99248.84;5016537;28;20203;-82
2023/03/31 01:40:30;;;;;;;2.50;1.30;;;;;;;10.96;93.05;99239.13;5017303;28;20274;-81
2023/03/31 01:43:00;;;;;;;3.67;1.23;;;;;;;10.98;93.53;99249.50;5016739;28;20230;-83
2023/03/31 01:45:37;;;;;;;5.40;1.30;;;;;;;10.90;92.33;99255.91;5017488;28;20680;-82
2023/03/31 01:48:11;;;;;;;4.23;1.17;;;;;;;10.88;92.25;99262.06;5017657;28;20190;-84
2023/03/31 01:50:45;;;;;;;2.70;1.37;;;;;;;10.81;91.87;99264.06;5017551;28;20210;-83
2023/03/31 01:53:18;;;;;;;4.43;1.30;;;;;;;10.67;94.98;99227.22;5017127;28;20229;-83
2023/03/31 01:55:50;;;;;;;2.23;1.87;;;;;;;10.66;94.10;99208.13;5016547;28;20675;-82
2023/03/31 01:58:21;;;;;;;3.87;1.57;;;;;;;10.51;93.66;99213.94;5016764;28;20206;-84
2023/03/31 02:00:55;;;;;;;4.87;1.50;;;;;;;10.60;94.03;99210.94;5016369;28;20216;-84
2023/03/31 02:03:28;;;;;;;4.00;1.53;;;;;;;10.62;94.62;99201.28;5016672;28;20235;-83
2023/03/31 02:05:59;;;;;;;3.77;1.17;;;;;;;10.56;94.10;99206.75;5015976;28;20220;-84
2023/03/31 02:08:32;;;;;;;2.40;1.40;;;;;;;10.48;95.05;99190.53;5017299;28;20688;-82
2023/03/31 02:11:00;;;;;;;2.63;1.00;;;;;;;10.47;94.48;99176.66;5016332;28;20567;-85
2023/03/31 02:13:28;;;;;;;2.23;1.20;;;;;;;10.49;94.34;99181.81;5016548;28;20238;-82
2023/03/31 02:16:00;;;;;;;4.37;1.37;;;;;;;10.49;95.95;99161.78;5016243;28;20702;-82
2023/03/31 02:18:31;;;;;;;3.17;1.20;;;;;;;10.49;95.86;99153.13;5016052;28;20793;-82
2023/03/31 02:21:00;;;;;;;2.57;1.13;;;;;;;10.49;95.60;99148.75;5016460;28;20571;-83
2023/03/31 02:23:30;;;;;;;2.77;1.30;;;;;;;10.51;96.28;99139.09;5016533;28;20224;-82
2023/03/31 02:26:02;;;;;;;1.67;1.07;;;;;;;10.60;94.36;99145.69;5016256;28;20218;-83
2023/03/31 02:28:29;;;;;;;2.53;1.10;;;;;;;10.65;94.67;99148.16;5016736;28;20206;-82
2023/03/31 02:31:06;;;;;;;2.00;0.90;;;;;;;10.69;95.01;99142.72;5016659;28;20247;-84
2023/03/31 02:33:33;;;;;;;3.17;1.20;;;;;;;10.73;95.08;99143.47;5016063;28;20208;-83
2023/03/31 02:36:00;;;;;;;2.77;1.13;;;;;;;10.66;92.46;99173.31;5015724;28;20291;-84
2023/03/31 02:38:27;;;;;;;2.73;1.80;;;;;;;10.72;91.21;99202.66;5015814;28;20231;-84
2023/03/31 02:40:53;;;;;;;3.97;2.13;;;;;;;10.80;90.69;99225.84;5016472;28;20206;-83
2023/03/31 02:43:21;;;;;;;5.60;1.27;;;;;;;10.90;90.16;99247.19;5015983;28;20233;-84
2023/03/31 02:45:50;;;;;;;2.63;1.33;;;;;;;10.87;88.94;99260.38;5026134;28;20236;-82
2023/03/31 02:48:21;;;;;;;1.87;0.93;;;;;;;10.91;90.41;99256.72;5035657;28;20621;-83
2023/03/31 02:51:17;;;;;;;2.43;0.90;;;;;;;10.86;91.95;99232.56;5035908;28;20735;-82
2023/03/31 02:53:57;;;;;;;3.03;1.13;;;;;;;10.81;90.89;99237.13;5035792;28;20204;-81
2023/03/31 02:56:41;;;;;;;3.77;1.17;;;;;;;10.83;92.47;99202.22;5035218;28;20238;-84
2023/03/31 02:59:21;;;;;;;3.03;1.40;;;;;;;10.79;92.40;99189.34;5035165;28;20244;-83
2023/03/31 03:02:03;;;;;;;2.80;0.90;;;;;;;10.79;92.32;99178.91;5035243;28;20232;-85
2023/03/31 03:04:54;;;;;;;1.87;1.00;;;;;;;10.77;92.87;99176.38;5020552;28;20668;-83
2023/03/31 03:07:28;;;;;;;2.33;1.00;;;;;;;10.71;90.15;99210.53;4996170;28;20239;-83
2023/03/31 03:10:02;;;;;;;3.70;1.17;;;;;;;10.76;90.45;99198.13;4996667;28;20210;-83
2023/03/31 03:12:37;;;;;;;2.17;0.90;;;;;;;10.72;89.15;99226.16;4995913;28;20236;-82
2023/03/31 03:15:11;;;;;;;3.73;1.40;;;;;;;10.78;89.33;99232.00;4996271;28;20272;-83
2023/03/31 03:17:41;;;;;;;3.13;1.13;;;;;;;10.76;89.58;99239.91;4996105;28;20216;-83
2023/03/31 03:20:09;;;;;;;4.30;0.97;;;;;;;10.76;89.17;99234.69;4996204;28;20200;-82
2023/03/31 03:22:36;;;;;;;3.90;1.43;;;;;;;10.80;89.54;99228.47;4996317;28;20878;-83
2023/03/31 03:25:03;;;;;;;3.20;1.10;;;;;;;10.80;89.13;99231.06;4998705;28;20209;-83
2023/03/31 03:27:29;;;;;;;2.33;0.83;;;;;;;10.80;89.26;99230.19;5035058;28;20676;-84
2023/03/31 03:29:56;;;;;;;3.87;1.13;;;;;;;10.82;89.01;99230.97;5034494;28;20239;-84
2023/03/31 03:32:23;;;;;;;4.10;1.07;;;;;;;10.69;89.50;99220.19;5033682;28;20224;-83
2023/03/31 03:34:50;;;;;;;2.47;0.87;;;;;;;10.64;90.51;99198.63;4999454;28;20198;-84
2023/03/31 03:37:16;;;;;;;1.57;0.70;;;;;;;10.69;90.01;99188.88;5015839;28;20257;-82
2023/03/31 03:39:43;;;;;;;3.77;1.53;;;;;;;10.69;90.03;99186.25;5015911;28;20206;-82
2023/03/31 03:42:09;;;;;;;2.87;1.07;;;;;;;10.65;89.59;99187.28;5016034;28;20278;-83
2023/03/31 03:44:35;;;;;;;4.93;1.03;;;;;;;10.58;90.12;99178.00;5014818;28;20206;-83
2023/03/31 03:47:02;;;;;;;2.27;0.77;;;;;;;10.62;89.86;99164.75;5027869;28;20259;-81
2023/03/31 03:49:29;;;;;;;3.90;0.80;;;;;;;10.49;90.51;99155.75;5034466;28;20254;-83
2023/03/31 03:51:56;;;;;;;3.33;1.10;;;;;;;10.51;89.91;99152.16;5035016;28;20256;-82
2023/03/31 03:54:22;;;;;;;4.93;1.00;;;;;;;10.48;89.81;99143.59;5026917;28;20243;-81
2023/03/31 03:56:48;;;;;;;3.57;0.90;;;;;;;10.49;89.54;99143.53;5014441;28;20234;-82
2023/03/31 03:59:15;;;;;;;4.30;1.10;;;;;;;10.48;89.79;99147.03;5014724;28;20204;-83
2023/03/31 04:01:41;;;;;;;5.27;1.00;;;;;;;10.45;89.40;99139.34;5017077;28;20282;-83
2023/03/31 04:04:08;;;;;;;2.43;0.97;;;;;;;10.34;90.09;99138.91;5018984;28;20233;-84
2023/03/31 04:06:35;;;;;;;3.50;1.00;;;;;;;10.33;90.42;99124.19;5027899;28;20193;-83
2023/03/31 04:09:02;;;;;;;4.53;0.97;;;;;;;10.32;91.07;99104.22;5038722;28;20213;-82
2023/03/31 04:11:29;;;;;;;3.13;1.40;;;;;;;10.26;90.26;99101.81;5037892;28;20240;-83
2023/03/31 04:13:55;;;;;;;2.90;0.97;;;;;;;10.23;90.01;99102.78;5037731;28;20251;-83
2023/03/31 04:16:24;;;;;;;3.57;0.90;;;;;;;10.39;90.01;99097.84;5038138;28;20229;-83
2023/03/31 04:18:51;;;;;;;1.47;0.90;;;;;;;10.38;89.64;99103.13;5038024;28;20208;-84
2023/03/31 04:21:22;;;;;;;4.97;1.23;;;;;;;10.27;90.71;99085.28;5037830;28;20248;-84
2023/03/31 04:23:57;;;;;;;2.10;0.83;;;;;;;10.27;90.86;99073.06;5037557;28;20691;-85
2023/03/31 04:26:29;;;;;;;3.30;1.03;;;;;;;10.36;91.06;99044.97;5035303;28;20194;-85
2023/03/31 04:28:59;;;;;;;3.27;1.17;;;;;;;10.34;90.82;99042.41;5037787;28;20252;-84
2023/03/31 04:31:26;;;;;;;3.33;1.10;;;;;;;10.28;90.75;99040.00;5037284;28;20231;-82
2023/03/31 04:33:52;;;;;;;3.67;1.07;;;;;;;10.28;91.03;99022.59;5006709;28;20230;-83
2023/03/31 04:36:19;;;;;;;2.33;0.90;;;;;;;10.35;90.92;99005.00;5019186;28;20255;-82
2023/03/31 04:38:49;;;;;;;4.00;1.57;;;;;;;10.37;90.31;99010.16;5017918;28;20237;-85
2023/03/31 04:41:17;;;;;;;4.17;1.00;;;;;;;10.36;90.66;99008.44;5018312;28;20349;-83
2023/03/31 04:43:44;;;;;;;5.33;1.10;;;;;;;10.28;91.42;98991.31;5017753;28;20209;-83
2023/03/31 04:46:10;;;;;;;2.83;1.00;;;;;;;10.31;91.67;98966.91;5021362;28;20207;-82
2023/03/31 04:48:36;;;;;;;3.30;0.87;;;;;;;10.33;91.36;98967.69;5035899;28;20231;-81
2023/03/31 04:51:03;;;;;;;2.20;1.10;;;;;;;10.40;91.57;98960.44;5037931;28;20250;-81
2023/03/31 04:53:30;;;;;;;3.43;0.80;;;;;;;10.39;91.61;98956.16;5037588;28;20209;-83
2023/03/31 04:55:56;;;;;;;2.27;0.97;;;;;;;10.37;92.03;98943.19;5037584;28;20262;-82
2023/03/31 04:58:24;;;;;;;1.90;0.93;;;;;;;10.36;93.01;98914.53;5038124;28;20700;-83
2023/03/31 05:00:51;;;;;;;3.17;1.10;;;;;;;10.39;93.21;98909.22;5037833;28;20200;-82
2023/03/31 05:03:18;;;;;;;2.17;0.87;;;;;;;10.35;93.27;98900.66;5013064;28;20245;-84
2023/03/31 05:05:44;;;;;;;0.80;0.80;;;;;;;10.33;93.90;98890.28;5016115;28;20729;-83
2023/03/31 05:08:10;;;;;;;4.23;0.70;;;;;;;10.32;93.77;98883.38;5035642;28;20216;-82
2023/03/31 05:10:37;;;;;;;1.63;0.83;;;;;;;10.34;94.04;98870.25;5037525;28;20627;-83
2023/03/31 05:13:04;;;;;;;2.47;1.23;;;;;;;10.37;93.81;98874.53;5036316;28;20255;-84
2023/03/31 05:15:31;;;;;;;2.60;0.80;;;;;;;10.41;93.77;98868.25;5036386;28;20681;-84
2023/03/31 05:17:59;;;;;;;3.80;0.80;;;;;;;10.28;93.87;98875.72;5037123;28;20218;-84
2023/03/31 05:20:25;;;;;;;3.63;0.83;;;;;;;10.11;92.66;98894.69;5036876;28;20209;-82
2023/03/31 05:22:51;;;;;;;5.60;1.57;;;;;;;10.22;92.88;98891.63;5036833;28;20302;-83
2023/03/31 05:25:18;;;;;;;3.60;1.20;;;;;;;10.24;92.30;98884.59;5036901;28;20203;-82
2023/03/31 05:27:45;;;;;;;4.30;1.30;;;;;;;10.25;93.47;98878.47;5021363;28;20201;-83
2023/03/31 05:30:13;;;;;;;2.40;1.53;;;;;;;10.34;92.93;98891.13;5016780;28;20214;-83
2023/03/31 05:32:41;;;;;;;4.80;1.00;;;;;;;10.31;92.75;98892.13;5018032;28;20267;-83
2023/03/31 05:35:08;;;;;;;4.43;1.10;;;;;;;10.33;91.10;98910.31;5022830;28;20230;-82
2023/03/31 05:37:34;;;;;;;5.77;1.10;;;;;;;10.36;91.25;98938.03;5016281;28;20237;-82
2023/03/31 05:40:03;;;;;;;3.00;0.90;;;;;;;10.39;90.27;98948.34;5017012;28;20207;-81
2023/03/31 05:42:29;;;;;;;2.17;1.10;;;;;;;10.46;90.68;98953.19;5016283;28;20328;-81
2023/03/31 05:44:56;;;;;;;2.87;1.13;;;;;;;10.56;89.73;98960.66;5016504;28;20269;-81
2023/03/31 05:47:23;;;;;;;3.10;0.97;;;;;;;10.62;89.71;98970.81;5025819;28;20203;-81
2023/03/31 05:49:50;;;;;;;1.73;1.07;;;;;;;10.57;90.17;98964.97;5035800;28;20686;-81
2023/03/31 05:52:17;;;;;;;1.20;0.87;;;;;;;10.65;90.09;98974.16;5036272;28;20239;-81
2023/03/31 05:54:43;;;;;;;1.30;1.17;;;;;;;10.70;89.61;98966.13;5036368;28;20208;-81
2023/03/31 05:57:10;;;;;;;4.23;1.30;;;;;;;10.76;89.35;98965.84;5036344;28;20283;-82
2023/03/31 05:59:37;;;;;;;2.90;0.83;;;;;;;10.77;89.42;98962.34;5036306;28;20215;-83
2023/03/31 06:02:03;;;;;;;4.83;0.80;;;;;;;10.74;89.21;98965.06;5031199;28;20275;-83
2023/03/31 06:04:31;;;;;;;1.80;1.13;;;;;;;10.78;89.72;98956.19;5020899;28;20267;-83
2023/03/31 06:06:59;;;;;;;2.87;1.03;;;;;;;10.84;89.68;98942.91;5009634;28;20231;-83
2023/03/31 06:09:27;;;;;;;3.37;1.30;;;;;;;10.90;89.89;98944.34;5016202;28;20208;-82
2023/03/31 06:11:53;;;;;;;3.47;1.10;;;;;;;10.90;89.74;98936.53;5016964;28;20259;-81
2023/03/31 06:14:20;;;;;;;3.30;1.20;;;;;;;10.91;89.92;98930.41;5015978;28;20259;-82
2023/03/31 06:16:47;;;;;;;3.30;0.80;;;;;;;10.97;89.87;98921.47;5016157;28;20260;-81
2023/03/31 06:19:13;;;;;;;2.13;0.70;;;;;;;11.01;89.85;98923.00;5016825;28;20264;-80
2023/03/31 06:21:40;;;;;;;2.87;0.90;;;;;;;11.06;89.42;98921.03;5016323;28;20306;-82
2023/03/31 06:24:08;;;;;;;3.13;1.47;;;;;;;11.08;89.07;98920.06;5017629;28;20698;-82
2023/03/31 06:26:35;;;;;;;2.40;0.90;;;;;;;11.12;89.41;98933.81;5019006;28;20208;-81
2023/03/31 06:29:01;;;;;;;2.13;0.70;;;;;;;11.17;89.25;98924.00;5039144;28;20678;-80
2023/03/31 06:31:27;;;;;;;2.70;1.50;;;;;;;11.18;88.86;98937.91;5042142;28;20225;-80
2023/03/31 06:33:54;;;;;;;1.97;1.00;;;;;;;11.21;88.33;98950.81;5038841;28;20636;-81
2023/03/31 06:36:21;;;;;;;3.00;0.80;;;;;;;11.22;87.35;98970.78;5017189;28;20331;-83
2023/03/31 06:38:48;;;;;;;1.70;0.70;;;;;;;11.05;87.11;98979.41;5019577;28;20210;-80
2023/03/31 06:41:19;;;;;;;2.13;1.10;;;;;;;11.06;88.39;98965.41;5019003;28;20208;-84
2023/03/31 06:43:46;;;;;;;4.33;1.07;;;;;;;10.88;89.95;98934.00;5018846;28;20677;-82
2023/03/31 06:46:13;;;;;;;1.40;1.03;;;;;;;10.92;90.52;98911.19;5018335;28;20205;-81
2023/03/31 06:48:40;;;;;;;3.30;0.77;;;;;;;11.01;90.73;98894.28;5034029;28;20215;-82
2023/03/31 06:51:07;;;;;;;2.80;0.90;;;;;;;10.96;90.74;98876.22;5039427;28;20670;-81
2023/03/31 06:53:33;;;;;;;1.50;0.57;;;;;;;11.00;91.76;98863.84;5039688;28;20868;-81
2023/03/31 06:56:00;;;;;;;3.50;0.70;;;;;;;11.08;92.15;98840.84;5038875;28;20213;-81
2023/03/31 06:58:27;;;;;;;3.37;0.90;;;;;;;11.17;92.66;98818.69;5039195;28;20746;-82
2023/03/31 07:00:53;;;;;;;2.60;0.93;;;;;;;11.21;93.86;98789.75;5039765;28;20204;-81
2023/03/31 07:03:23;;;;;;;5.20;2.00;;;;;;;11.27;94.20;98772.94;5038136;28;20227;-82
2023/03/31 07:05:50;;;;;;;3.47;1.07;;;;;;;11.19;95.15;98747.19;5037529;28;20736;-82
2023/03/31 07:08:17;;;;;;;3.43;1.10;;;;;;;11.08;94.33;98745.09;5036460;28;20205;-81
2023/03/31 07:10:45;;;;;;;2.43;0.63;;;;;;;11.13;94.41;98734.44;5038069;28;20209;-82
2023/03/31 07:13:12;;;;;;;2.03;0.80;;;;;;;11.11;94.23;98731.03;5039556;28;20263;-82
2023/03/31 07:15:41;;;;;;;5.10;1.20;;;;;;;11.08;94.27;98733.78;5039253;28;20235;-82
2023/03/31 07:18:08;;;;;;;2.00;1.10;;;;;;;11.00;94.69;98721.13;5039997;28;20608;-82
2023/03/31 07:20:34;;;;;;;1.53;0.80;;;;;;;11.05;96.18;98700.84;5039557;28;20210;-81
2023/03/31 07:23:03;;;;;;;2.60;0.93;;;;;;;11.11;96.01;98687.50;5038018;28;20569;-82
2023/03/31 07:25:30;;;;;;;2.77;1.10;;;;;;;11.16;96.15;98691.63;5040497;28;20756;-82
2023/03/31 07:27:56;;;;;;;5.40;0.97;;;;;;;11.11;96.54;98678.81;5040827;28;20590;-81
2023/03/31 07:30:23;;;;;;;4.63;1.70;;;;;;;11.11;96.83;98666.59;5039981;28;20210;-80
2023/03/31 07:32:51;;;;;;;2.43;1.20;;;;;;;11.17;96.95;98662.00;5040006;28;20250;-83
2023/03/31 07:35:19;;;;;;;5.77;1.57;;;;;;;11.14;96.99;98652.56;5039045;28;20266;-81
2023/03/31 07:37:48;;;;;;;3.23;1.43;;;;;;;11.16;97.21;98648.13;5040695;28;20230;-82
2023/03/31 07:40:16;;;;;;;3.37;1.30;;;;;;;11.17;97.04;98651.56;5038811;28;20257;-82
2023/03/31 07:42:43;;;;;;;3.53;1.30;;;;;;;11.20;97.12;98636.59;5037563;28;20238;-82
2023/03/31 07:45:10;;;;;;;3.13;1.27;;;;;;;11.20;96.60;98639.19;5040196;28;20211;-82
2023/03/31 07:47:37;;;;;;;3.07;1.30;;;;;;;11.23;95.72;98654.69;5034797;28;20206;-82
2023/03/31 07:50:06;;;;;;;2.63;1.20;;;;;;;11.22;94.53;98679.13;5019338;28;20637;-81
2023/03/31 07:52:33;;;;;;;3.80;1.40;;;;;;;11.22;94.23;98679.13;5018479;28;20278;-82
2023/03/31 07:54:59;;;;;;;3.17;1.70;;;;;;;11.32;94.30;98682.13;5018977;28;20301;-82
2023/03/31 07:57:26;;;;;;;1.93;1.30;;;;;;;11.46;94.76;98671.00;5019216;28;20221;-82
2023/03/31 07:59:53;;;;;;;3.43;1.63;;;;;;;11.46;93.62;98690.13;5017080;28;20705;-82
2023/03/31 08:02:19;;;;;;;1.13;1.10;;;;;;;11.52;92.43;98717.72;5019541;28;20228;-81
2023/03/31 08:04:47;;;;;;;3.17;1.33;;;;;;;11.63;93.03;98706.69;5016486;28;20215;-81
2023/03/31 08:07:16;;;;;;;2.03;1.00;;;;;;;11.51;90.91;98748.19;5015423;28;20258;-82
2023/03/31 08:09:44;;;;;;;2.97;1.27;;;;;;;11.52;90.60;98772.56;5015693;28;20850;-82
2023/03/31 08:12:11;;;;;;;4.40;1.43;;;;;;;11.56;90.10;98763.66;5016712;28;20316;-82
2023/03/31 08:14:37;;;;;;;1.40;1.10;;;;;;;11.67;90.88;98761.38;5016769;28;20204;-81
2023/03/31 08:17:03;;;;;;;0.90;0.80;;;;;;;11.61;88.79;98773.88;5014963;28;20248;-82
2023/03/31 08:19:30;;;;;;;2.77;0.90;;;;;;;11.70;89.12;98794.34;5014970;28;20206;-83
2023/03/31 08:21:56;;;;;;;2.17;1.10;;;;;;;11.73;88.81;98795.03;5016617;28;20260;-82
2023/03/31 08:24:24;;;;;;;2.93;1.37;;;;;;;11.81;88.97;98788.56;5015506;28;20241;-84
2023/03/31 08:26:50;;;;;;;3.90;1.10;;;;;;;11.90;90.32;98770.66;5016895;28;20211;-83
2023/03/31 08:29:17;;;;;;;1.60;0.90;;;;;;;12.01;91.25;98740.50;5015166;28;20201;-83
2023/03/31 08:31:43;;;;;;;2.97;1.07;;;;;;;11.98;88.46;98775.50;5013749;28;20270;-84
2023/03/31 08:34:09;;;;;;;1.03;0.83;;;;;;;11.90;88.05;98798.59;5013661;28;20274;-82
2023/03/31 08:36:36;;;;;;;2.17;0.90;;;;;;;11.74;85.71;98832.47;5014487;28;20213;-85
2023/03/31 08:39:03;;;;;;;2.07;1.40;;;;;;;11.62;86.24;98838.31;5014825;28;20750;-82
2023/03/31 08:41:46;;;;;;;2.33;1.10;;;;;;;11.60;87.22;98820.06;5015489;28;20228;-82
2023/03/31 08:44:16;;;;;;;1.50;0.90;;;;;;;11.67;86.68;98825.84;5018500;28;20210;-82
2023/03/31 08:46:43;;;;;;;1.60;0.70;;;;;;;11.44;85.96;98824.38;5024425;28;20209;-82
2023/03/31 08:49:21;;;;;;;1.10;0.80;;;;;;;11.55;86.63;98819.44;5026214;28;20213;-83
2023/03/31 08:51:52;;;;;;;3.47;0.93;;;;;;;11.51;86.45;98817.91;5022462;28;20227;-83
2023/03/31 08:55:01;;;;;;;1.90;0.90;;;;;;;11.62;85.94;98827.84;5018723;28;20210;-81
2023/03/31 08:57:58;;;;;;;3.30;0.70;;;;;;;11.56;86.52;98815.09;5019208;28;20252;-82
2023/03/31 09:00:25;;;;;;;1.30;0.70;;;;;;;11.71;87.43;98801.25;5020071;28;20215;-82
2023/03/31 09:03:33;;;;;;;1.63;0.83;;;;;;;11.65;86.75;98793.69;5019386;28;20235;-83
2023/03/31 09:06:03;;;;;;;1.20;0.60;;;;;;;11.71;87.27;98790.78;5017730;28;20217;-81
2023/03/31 09:08:36;;;;;;;3.13;1.00;;;;;;;11.69;87.10;98779.56;5017815;28;20202;-83
2023/03/31 09:11:13;;;;;;;1.23;0.77;;;;;;;11.41;86.70;98783.53;5019131;28;20217;-82
2023/03/31 09:13:56;;;;;;;1.17;0.70;;;;;;;11.47;88.33;98764.94;5018245;28;20203;-85
2023/03/31 09:16:26;;;;;;;3.47;1.27;;;;;;;11.57;90.20;98720.06;5018131;28;20216;-84
2023/03/31 09:18:58;;;;;;;2.07;0.80;;;;;;;11.40;89.16;98720.94;5018287;28;20271;-83
2023/03/31 09:21:29;;;;;;;4.43;1.13;;;;;;;11.43;90.96;98684.19;5018381;28;20234;-83
2023/03/31 09:24:02;;;;;;;1.97;0.70;;;;;;;11.41;91.78;98657.31;5018319;28;20625;-84
2023/03/31 09:26:35;;;;;;;1.30;0.80;;;;;;;11.40;91.32;98646.03;5018407;28;20683;-83
2023/03/31 09:29:07;;;;;;;2.97;1.57;;;;;;;11.38;92.23;98629.56;5018833;28;20277;-83
2023/03/31 09:31:34;;;;;;;1.90;1.00;;;;;;;11.40;92.87;98609.44;5030008;28;20673;-83
2023/03/31 09:34:12;;;;;;;2.07;0.80;;;;;;;11.43;93.17;98593.59;5037816;28;20272;-83
2023/03/31 09:36:38;;;;;;;1.57;0.97;;;;;;;11.30;92.99;98585.56;5037758;28;20240;-82
2023/03/31 09:39:06;;;;;;;2.40;0.90;;;;;;;11.26;93.45;98568.38;5037058;28;20254;-83
2023/03/31 09:41:32;;;;;;;2.03;0.70;;;;;;;11.38;94.55;98545.13;5037250;28;20256;-81
2023/03/31 09:43:58;;;;;;;2.57;1.00;;;;;;;11.18;94.11;98544.41;5037204;28;20208;-80
2023/03/31 09:46:31;;;;;;;2.10;0.80;;;;;;;11.26;94.68;98546.63;5036618;28;20557;-83
2023/03/31 09:49:05;;;;;;;1.40;0.70;;;;;;;11.10;94.13;98541.38;5037301;28;20231;-82
2023/03/31 09:51:36;;;;;;;0.97;0.73;;;;;;;11.16;95.73;98519.28;5037122;28;20232;-83
2023/03/31 09:54:09;;;;;;;3.90;1.63;;;;;;;10.96;95.70;98507.28;5037410;28;20208;-83
2023/03/31 09:56:47;;;;;;;1.47;0.87;;;;;;;10.92;96.69;98491.78;5037208;28;20697;-84
2023/03/31 09:59:16;;;;;;;1.70;0.80;;;;;;;10.97;97.51;98462.81;5037694;28;20213;-82
2023/03/31 10:01:45;;;;;;;2.33;0.80;;;;;;;10.91;96.38;98470.97;5023387;28;20226;-82
2023/03/31 10:04:18;;;;;;;1.60;0.73;;;;;;;10.77;96.67;98469.06;5043856;28;20242;-82
2023/03/31 10:06:46;;;;;;;1.33;0.80;;;;;;;10.91;97.88;98457.91;5053607;28;20219;-83
2023/03/31 10:09:13;;;;;;;1.70;1.00;;;;;;;10.73;97.49;98460.56;5055171;28;20206;-81
2023/03/31 10:11:39;;;;;;;2.37;1.00;;;;;;;10.69;98.48;98451.19;5054855;28;20225;-82
2023/03/31 10:14:13;;;;;;;1.20;0.77;;;;;;;10.70;97.89;98429.41;5055874;28;20210;-82
2023/03/31 10:16:47;;;;;;;2.73;0.83;;;;;;;10.61;96.92;98457.75;5057029;28;20188;-83
2023/03/31 10:19:20;;;;;;;0.60;0.60;;;;;;;10.75;97.43;98455.25;5056892;28;20217;-82
2023/03/31 10:21:55;;;;;;;1.87;0.80;;;;;;;10.88;97.13;98455.47;5055994;28;20224;-82
2023/03/31 10:24:21;;;;;;;0.67;0.67;;;;;;;10.90;96.44;98464.06;5056050;28;20208;-83
2023/03/31 10:26:48;;;;;;;1.47;0.50;;;;;;;10.84;95.28;98496.56;5055461;28;20212;-82
2023/03/31 10:29:24;;;;;;;0.77;0.60;;;;;;;10.76;94.18;98523.94;5055526;28;20208;-82
2023/03/31 10:31:52;;;;;;;0.73;0.50;;;;;;;10.59;92.65;98548.28;5042377;28;20221;-83
2023/03/31 10:34:19;;;;;;;1.90;0.50;;;;;;;10.82;94.49;98541.91;5055360;28;20203;-82
2023/03/31 10:36:47;;;;;;;0.80;0.50;;;;;;;10.66;93.92;98557.47;5055713;28;20200;-83
2023/03/31 10:39:15;;;;;;;0.53;0.40;;;;;;;10.64;94.18;98554.94;5055472;28;20217;-83
2023/03/31 10:41:42;;;;;;;0.53;0.40;;;;;;;10.70;93.50;98564.25;5050815;28;20232;-82
2023/03/31 10:44:30;;;;;;;0.40;0.40;;;;;;;10.57;92.92;98569.22;5040343;28;20208;-85
2023/03/31 10:47:04;;;;;;;1.33;0.43;;;;;;;10.65;95.35;98538.38;5039513;28;20212;-85
2023/03/31 10:49:38;;;;;;;0.70;0.60;;;;;;;10.70;96.54;98502.47;5040576;28;20218;-85
2023/03/31 10:52:16;;;;;;;0.90;0.40;;;;;;;10.60;94.92;98514.28;5039557;28;20295;-85
2023/03/31 10:54:47;;;;;;;1.03;0.40;;;;;;;10.59;96.40;98490.91;5037947;28;20208;-84
2023/03/31 10:57:14;;;;;;;1.40;0.30;;;;;;;10.63;97.15;98482.00;5038133;28;20215;-85
2023/03/31 10:59:51;;;;;;;0.30;0.30;;;;;;;10.68;96.65;98482.59;5037854;28;20237;-85
2023/03/31 11:02:45;;;;;;;2.13;0.47;;;;;;;10.51;96.27;98493.88;5019650;28;20222;-85
2023/03/31 11:05:15;;;;;;;0.63;0.40;;;;;;;10.34;96.89;98479.91;4997587;28;20208;-85
2023/03/31 11:07:53;;;;;;;0.30;0.30;;;;;;;10.41;97.75;98448.31;4997465;28;20744;-85
2023/03/31 11:10:34;;;;;;;0.83;0.47;;;;;;;10.44;96.93;98453.38;4997456;28;20206;-85
2023/03/31 11:13:07;;;;;;;1.27;0.40;;;;;;;10.49;98.39;98439.19;4997455;28;20244;-85
2023/03/31 11:15:41;;;;;;;0.60;0.30;;;;;;;10.58;98.92;98432.63;4997539;28;20234;-85
2023/03/31 11:18:30;;;;;;;0.50;0.40;;;;;;;10.48;98.68;98423.59;4996954;28;20324;-85
2023/03/31 11:21:04;;;;;;;1.20;0.50;;;;;;;10.41;98.99;98427.47;4996718;28;20214;-84
2023/03/31 11:23:40;;;;;;;1.13;0.40;;;;;;;10.56;99.63;98412.78;4997001;28;20232;-85
2023/03/31 11:26:12;;;;;;;0.30;0.30;;;;;;;10.61;100.00;98395.97;4997400;28;20238;-84
2023/03/31 11:29:06;;;;;;;1.57;0.50;;;;;;;10.77;99.91;98390.78;4996738;28;20692;-84
2023/03/31 11:31:39;;;;;;;1.70;0.53;;;;;;;10.92;100.00;98386.50;5008295;28;20232;-84
2023/03/31 11:34:22;;;;;;;1.30;0.40;;;;;;;11.08;100.00;98394.34;5027510;28;20240;-85
2023/03/31 11:37:12;;;;;;;0.77;0.40;;;;;;;11.06;97.67;98404.91;5036424;28;20207;-85
2023/03/31 11:39:49;;;;;;;1.13;0.30;;;;;;;11.14;97.82;98435.84;5036234;28;20315;-85
2023/03/31 11:42:21;;;;;;;0.43;0.43;;;;;;;11.41;98.73;98425.63;5035647;28;20235;-84
2023/03/31 11:44:53;;;;;;;0.63;0.43;;;;;;;11.46;99.40;98402.72;5035977;28;20209;-86
2023/03/31 11:47:23;;;;;;;0.43;0.40;;;;;;;11.53;98.01;98431.97;5034802;28;20741;-82
2023/03/31 11:49:55;;;;;;;0.40;0.40;;;;;;;11.55;97.71;98431.88;5035317;28;20258;-82